Kezdőlap
METAR-TAF:

METAR-TAF

Repülőterek :

Hagåtña, Guam, Amerikai Egyesült Államok

földrajzi szélesség: 13-29N, földrajzi hosszúság: 144-48E, magasság: 91 m

Jelenlegi meteorológiai megfigyelések

A jelentés 1 órával és 5 perccel ezelõtt készült, 16:54 UTC
Keleti szél 5 kt
Hőmérséklet 27°C
Páratartalom 79%
Légköri nyomás 1013 hPa
Látótávolság: 16.1 km
Derült ég

METAR: PGUM 281654Z 08005KT 10SM CLR 27/23 A2992 RMK AO2 SLP125 T02670233

Idő: 03:59 (17:59 UTC)

Előrejelzés

A jelentés 35 perccel ezelõtt készült, 17:24 UTC
Az előrejelzés 28-én 18 óra UTC és 29-én 24 óra UTC között érvényes
Keleti szél 8 kt
Látótávolság: 10 km
Kevés felhő 2000 lábon

TAF: PGUM 281724Z 2818/2924 09008KT P6SM FEW020

Meteorológiai megfigyelések és előrejelzések több, mint 4000 repülőtéren (METAR és TAF jelentéseket).

A térképen piros és sárga pontok jelzik az elérhető meteorológiai állomásokat.

Mozgassa az egeret a pont fölött, hogy megjelenjen az állomás neve.

Azután kattintson az időjárási megfigyelések és előrejelzések megtekintéséhez.

A térkép megváltoztatása: kattintson a fekete keresztel jelölt zöld gombra ráközelítéshez, a vonallal jelölt zöld gombra távolításhoz, vagy a zöld nyilakra a szomszédos térképek eléréséhez.


METAR-TAF: